createdAt,value
2023-02-08T00:00:58.499Z,12.80
2023-02-08T00:03:27.657Z,12.87
2023-02-08T00:05:55.449Z,12.40
2023-02-08T00:08:23.205Z,11.27
2023-02-08T00:10:51.309Z,11.23
2023-02-08T00:13:19.226Z,12.17
2023-02-08T00:15:48.546Z,12.50
2023-02-08T00:18:16.435Z,12.30
2023-02-08T00:20:45.111Z,11.53
2023-02-08T00:23:13.432Z,11.77
2023-02-08T00:25:42.000Z,12.43
2023-02-08T00:28:14.138Z,11.63
2023-02-08T00:30:42.490Z,12.57
2023-02-08T00:33:11.904Z,11.20
2023-02-08T00:35:41.033Z,11.23
2023-02-08T00:38:08.957Z,12.37
2023-02-08T00:40:44.278Z,11.43
2023-02-08T00:43:13.008Z,9.77
2023-02-08T00:45:41.198Z,9.23
2023-02-08T00:48:09.031Z,9.83
2023-02-08T00:50:38.556Z,10.17
2023-02-08T00:53:06.480Z,9.80
2023-02-08T00:55:34.221Z,9.03
2023-02-08T00:58:02.004Z,7.60
2023-02-08T01:00:29.817Z,8.43
2023-02-08T01:02:57.664Z,8.20
2023-02-08T01:05:25.434Z,8.47
2023-02-08T01:07:54.571Z,9.10
2023-02-08T01:10:22.343Z,8.00
2023-02-08T01:12:50.109Z,9.20
2023-02-08T01:15:17.985Z,8.00
2023-02-08T01:17:45.794Z,10.80
2023-02-08T01:20:13.560Z,10.20
2023-02-08T01:22:41.328Z,10.20
2023-02-08T01:25:11.177Z,10.33
2023-02-08T01:27:38.954Z,10.03
2023-02-08T01:30:07.814Z,10.00
2023-02-08T01:32:35.631Z,10.47
2023-02-08T01:35:03.417Z,9.80
2023-02-08T01:37:31.259Z,9.80
2023-02-08T01:39:59.053Z,9.17
2023-02-08T01:42:28.528Z,8.87
2023-02-08T01:45:30.802Z,9.77
2023-02-08T01:48:05.220Z,9.20
2023-02-08T01:50:42.553Z,9.50
2023-02-08T01:53:10.784Z,10.63
2023-02-08T01:55:43.822Z,10.77
2023-02-08T01:58:14.050Z,10.40
2023-02-08T02:00:42.319Z,11.03
2023-02-08T02:03:10.551Z,10.30
2023-02-08T02:05:41.661Z,10.57
2023-02-08T02:08:10.478Z,10.77
2023-02-08T02:10:40.461Z,10.37
2023-02-08T02:13:11.221Z,11.33
2023-02-08T02:15:40.855Z,11.63
2023-02-08T02:18:10.152Z,9.63
2023-02-08T02:20:50.280Z,10.50
2023-02-08T02:23:56.369Z,11.37
2023-02-08T02:26:49.169Z,10.03
2023-02-08T02:29:53.994Z,10.60
2023-02-08T02:32:39.183Z,10.20
2023-02-08T02:35:13.410Z,10.97
2023-02-08T02:37:52.042Z,11.83
2023-02-08T02:40:24.325Z,12.00
2023-02-08T02:43:19.463Z,12.23
2023-02-08T02:45:53.427Z,11.70
2023-02-08T02:48:32.518Z,12.00
2023-02-08T02:51:06.571Z,10.20
2023-02-08T02:53:41.952Z,11.93
2023-02-08T02:56:16.453Z,11.20
2023-02-08T02:58:45.525Z,11.63
2023-02-08T03:01:13.727Z,11.50
2023-02-08T03:03:42.909Z,10.93
2023-02-08T03:06:15.754Z,11.27
2023-02-08T03:09:08.848Z,12.27
2023-02-08T03:11:37.933Z,11.50
2023-02-08T03:14:30.151Z,11.20
2023-02-08T03:17:08.717Z,10.93
2023-02-08T03:19:44.199Z,10.63
2023-02-08T03:22:16.568Z,9.43
2023-02-08T03:24:52.809Z,11.17
2023-02-08T03:27:28.510Z,11.00
2023-02-08T03:30:02.292Z,10.33
2023-02-08T03:32:39.550Z,10.63
2023-02-08T03:35:15.349Z,11.20
2023-02-08T03:37:49.041Z,11.07
2023-02-08T03:40:22.653Z,12.17
2023-02-08T03:42:53.186Z,10.80
2023-02-08T03:45:24.868Z,11.03
2023-02-08T03:47:55.747Z,10.83
2023-02-08T03:50:25.900Z,11.00
2023-02-08T03:52:54.636Z,12.00
2023-02-08T03:55:26.064Z,10.60
2023-02-08T03:57:58.145Z,10.53
2023-02-08T04:00:26.688Z,11.57
2023-02-08T04:02:58.331Z,9.97
2023-02-08T04:05:27.919Z,11.07
2023-02-08T04:07:55.732Z,11.43
2023-02-08T04:10:23.784Z,10.60
2023-02-08T04:12:51.792Z,11.40
2023-02-08T04:15:19.739Z,11.80
2023-02-08T04:17:47.514Z,11.13
2023-02-08T04:20:15.341Z,11.47
2023-02-08T04:22:44.469Z,12.30
2023-02-08T04:25:12.308Z,11.93
2023-02-08T04:27:40.101Z,10.70
2023-02-08T04:30:08.320Z,12.77
2023-02-08T04:32:36.127Z,11.57
2023-02-08T04:35:04.093Z,11.63
2023-02-08T04:37:31.868Z,11.10
2023-02-08T04:40:01.010Z,11.07
2023-02-08T04:42:28.796Z,12.00
2023-02-08T04:44:56.728Z,10.47
2023-02-08T04:47:24.540Z,12.90
2023-02-08T04:49:52.310Z,11.60
2023-02-08T04:52:20.102Z,10.53
2023-02-08T04:54:47.898Z,11.30
2023-02-08T04:57:17.069Z,11.60
2023-02-08T04:59:44.943Z,12.50
2023-02-08T05:02:12.729Z,12.93
2023-02-08T05:04:40.544Z,10.40
2023-02-08T05:07:08.359Z,11.80
2023-02-08T05:09:36.139Z,11.47
2023-02-08T05:12:04.082Z,11.33
2023-02-08T05:14:33.221Z,11.07
2023-02-08T05:17:00.995Z,11.00
2023-02-08T05:19:28.857Z,11.60
2023-02-08T05:21:56.668Z,12.23
2023-02-08T05:24:24.466Z,11.53
2023-02-08T05:26:52.298Z,12.17
2023-02-08T05:29:20.278Z,11.93
2023-02-08T05:31:49.516Z,12.57
2023-02-08T05:34:17.315Z,11.10
2023-02-08T05:36:45.105Z,11.97
2023-02-08T05:39:12.918Z,13.00
2023-02-08T05:41:40.704Z,12.20
2023-02-08T05:44:08.462Z,13.00
2023-02-08T05:46:38.146Z,12.23
2023-02-08T05:49:08.123Z,11.93
2023-02-08T05:51:35.935Z,12.33
2023-02-08T05:54:03.883Z,13.47
2023-02-08T05:56:31.755Z,12.60
2023-02-08T05:59:01.745Z,13.50
2023-02-08T06:01:29.821Z,12.90
2023-02-08T06:03:59.198Z,13.93
2023-02-08T06:06:28.433Z,14.07
2023-02-08T06:08:56.521Z,13.73
2023-02-08T06:11:24.378Z,13.10
2023-02-08T06:13:52.214Z,13.87
2023-02-08T06:16:20.236Z,13.10
2023-02-08T06:18:48.141Z,14.13
2023-02-08T06:21:15.998Z,14.90
2023-02-08T06:23:45.195Z,14.03
2023-02-08T06:26:13.019Z,15.13
2023-02-08T06:28:40.847Z,14.10
2023-02-08T06:31:08.608Z,16.10
2023-02-08T06:33:36.451Z,14.80
2023-02-08T06:36:04.701Z,14.73
2023-02-08T06:38:32.539Z,15.70
2023-02-08T06:41:01.640Z,15.70
2023-02-08T06:43:33.801Z,16.10
2023-02-08T06:46:04.724Z,15.77
2023-02-08T06:48:34.445Z,15.87
2023-02-08T06:51:02.371Z,15.87
2023-02-08T06:53:30.188Z,13.83
2023-02-08T06:55:57.989Z,14.13
2023-02-08T06:58:27.298Z,14.47
2023-02-08T07:00:55.067Z,14.97
2023-02-08T07:03:23.423Z,14.23
2023-02-08T07:06:04.149Z,15.10
2023-02-08T07:08:32.837Z,15.17
2023-02-08T07:11:00.625Z,15.60
2023-02-08T07:13:29.729Z,16.70
2023-02-08T07:15:57.508Z,16.90
2023-02-08T07:18:25.306Z,16.80
2023-02-08T07:20:53.087Z,16.27
2023-02-08T07:23:20.952Z,17.37
2023-02-08T07:25:58.437Z,16.50
2023-02-08T07:28:26.615Z,16.43
2023-02-08T07:30:55.933Z,16.97
2023-02-08T07:33:24.646Z,17.33
2023-02-08T07:35:52.566Z,16.57
2023-02-08T07:38:20.876Z,18.47
2023-02-08T07:40:48.831Z,18.53
2023-02-08T07:43:16.644Z,19.47
2023-02-08T07:45:44.455Z,18.77
2023-02-08T07:48:13.629Z,17.70
2023-02-08T07:50:41.654Z,17.57
2023-02-08T07:53:09.598Z,19.50
2023-02-08T07:55:37.355Z,18.23
2023-02-08T07:58:05.166Z,20.80
2023-02-08T08:00:32.971Z,17.73
2023-02-08T08:03:01.318Z,19.03
2023-02-08T08:05:30.448Z,18.03
2023-02-08T08:07:58.274Z,19.17
2023-02-08T08:10:26.078Z,19.50
2023-02-08T08:12:53.926Z,18.83
2023-02-08T08:15:21.699Z,19.23
2023-02-08T08:17:49.534Z,18.63
2023-02-08T08:20:17.782Z,18.70
2023-02-08T08:22:46.948Z,17.67
2023-02-08T08:25:15.181Z,16.07
2023-02-08T08:27:43.004Z,15.50
2023-02-08T08:30:12.355Z,18.10
2023-02-08T08:32:40.848Z,15.83
2023-02-08T08:35:09.805Z,17.70
2023-02-08T08:37:38.385Z,18.13
2023-02-08T08:40:09.597Z,17.07
2023-02-08T08:42:39.715Z,16.47
2023-02-08T08:45:08.620Z,17.60
2023-02-08T08:47:36.522Z,15.13
2023-02-08T08:50:04.434Z,13.67
2023-02-08T08:52:32.309Z,13.20
2023-02-08T08:55:00.118Z,13.57
2023-02-08T08:57:29.276Z,11.90
2023-02-08T08:59:57.062Z,11.63
2023-02-08T09:02:24.981Z,11.00
2023-02-08T09:04:52.897Z,11.07
2023-02-08T09:07:20.728Z,12.80
2023-02-08T09:09:48.589Z,11.70
2023-02-08T09:12:16.642Z,11.70
2023-02-08T09:14:45.871Z,11.67
2023-02-08T09:17:13.640Z,11.40
2023-02-08T09:19:42.555Z,12.53
2023-02-08T09:22:10.410Z,12.70
2023-02-08T09:24:38.259Z,13.23
2023-02-08T09:27:06.066Z,12.53
2023-02-08T09:29:34.337Z,11.93
2023-02-08T09:32:03.886Z,12.57
2023-02-08T09:34:31.653Z,10.33
2023-02-08T09:36:59.455Z,12.20
2023-02-08T09:39:27.503Z,12.87
2023-02-08T09:42:14.001Z,12.50
2023-02-08T09:44:51.912Z,12.60
2023-02-08T09:47:25.403Z,11.40
2023-02-08T09:49:58.672Z,11.40
2023-02-08T09:52:34.450Z,11.97
2023-02-08T09:55:22.279Z,12.13
2023-02-08T09:57:54.764Z,11.67
2023-02-08T10:00:31.329Z,11.30
2023-02-08T10:03:02.716Z,12.17
2023-02-08T10:05:35.587Z,13.30
2023-02-08T10:08:03.405Z,11.97
2023-02-08T10:10:43.924Z,11.73
2023-02-08T10:13:40.742Z,12.40
2023-02-08T10:16:19.493Z,11.00
2023-02-08T10:18:51.906Z,12.50
2023-02-08T10:21:30.693Z,11.07
2023-02-08T10:24:14.013Z,10.47
2023-02-08T10:26:46.617Z,11.00
2023-02-08T10:29:26.581Z,10.70
2023-02-08T10:32:21.332Z,10.60
2023-02-08T10:34:54.342Z,11.43
2023-02-08T10:37:28.384Z,9.67
2023-02-08T10:39:58.343Z,10.00
2023-02-08T10:42:28.705Z,9.10
2023-02-08T10:45:18.906Z,11.43
2023-02-08T10:47:55.307Z,9.67
2023-02-08T10:50:33.182Z,9.70
2023-02-08T10:53:01.050Z,9.63
2023-02-08T10:55:30.937Z,9.27
2023-02-08T10:58:01.276Z,9.53
2023-02-08T11:00:32.226Z,9.07
2023-02-08T11:03:04.729Z,10.80
2023-02-08T11:05:36.770Z,11.47
2023-02-08T11:08:09.749Z,10.10
2023-02-08T11:10:38.880Z,10.53
2023-02-08T11:13:15.841Z,9.60
2023-02-08T11:15:47.202Z,10.20
2023-02-08T11:18:22.029Z,10.47
2023-02-08T11:20:53.848Z,10.37
2023-02-08T11:23:27.584Z,9.57
2023-02-08T11:25:56.879Z,10.33
2023-02-08T11:28:30.788Z,9.90
2023-02-08T11:31:02.014Z,10.80
2023-02-08T11:33:30.877Z,10.40
2023-02-08T11:36:06.782Z,11.67
2023-02-08T11:38:37.071Z,11.13
2023-02-08T11:41:14.543Z,10.20
2023-02-08T11:43:43.160Z,11.30
2023-02-08T11:46:12.163Z,11.03
2023-02-08T11:48:44.623Z,10.10
2023-02-08T11:51:24.955Z,10.40
2023-02-08T11:53:52.960Z,11.03
2023-02-08T11:56:22.771Z,10.93
2023-02-08T11:58:58.022Z,11.37
2023-02-08T12:01:29.379Z,12.03
2023-02-08T12:04:00.456Z,10.47
2023-02-08T12:07:07.397Z,11.47
2023-02-08T12:10:05.587Z,11.10
2023-02-08T12:12:44.584Z,11.27
2023-02-08T12:15:23.944Z,11.47
2023-02-08T12:18:17.356Z,10.40
2023-02-08T12:20:46.980Z,9.47
2023-02-08T12:23:47.389Z,10.20
2023-02-08T12:26:24.273Z,10.20
2023-02-08T12:29:11.231Z,9.63
2023-02-08T12:31:53.626Z,9.40
2023-02-08T12:34:28.846Z,10.27
2023-02-08T12:37:15.826Z,10.23
2023-02-08T12:40:11.006Z,10.17
2023-02-08T12:42:55.385Z,10.67
2023-02-08T12:45:39.864Z,10.67
2023-02-08T12:48:20.093Z,10.10
2023-02-08T12:50:57.113Z,10.50
2023-02-08T12:53:31.038Z,11.13
2023-02-08T12:56:02.925Z,11.73
2023-02-08T12:58:36.611Z,10.80
2023-02-08T13:01:15.001Z,9.90
2023-02-08T13:03:49.076Z,10.80
2023-02-08T13:06:19.502Z,10.53
2023-02-08T13:08:51.347Z,11.60
2023-02-08T13:11:28.762Z,11.13
2023-02-08T13:14:03.465Z,10.80
2023-02-08T13:16:36.652Z,10.57
2023-02-08T13:19:27.035Z,10.90
2023-02-08T13:21:56.072Z,10.60
2023-02-08T13:24:30.856Z,11.50
2023-02-08T13:26:58.756Z,10.67
2023-02-08T13:29:29.415Z,10.70
2023-02-08T13:32:01.581Z,10.43
2023-02-08T13:34:33.952Z,10.60
2023-02-08T13:37:08.853Z,10.57
2023-02-08T13:39:42.461Z,10.70
2023-02-08T13:42:24.115Z,10.53
2023-02-08T13:44:56.000Z,10.30
2023-02-08T13:47:26.785Z,9.67
2023-02-08T13:49:59.882Z,9.93
2023-02-08T13:52:53.713Z,11.03
2023-02-08T13:55:42.753Z,10.80
2023-02-08T13:58:39.302Z,10.47
2023-02-08T14:01:28.641Z,10.10
2023-02-08T14:04:31.863Z,10.60
2023-02-08T14:07:13.360Z,10.73
2023-02-08T14:09:48.706Z,10.53
2023-02-08T14:12:24.996Z,11.03
2023-02-08T14:15:27.395Z,11.03
2023-02-08T14:17:59.696Z,9.87
2023-02-08T14:20:32.249Z,10.20
2023-02-08T14:23:03.236Z,10.37
2023-02-08T14:25:40.674Z,10.93
2023-02-08T14:28:22.714Z,10.73
2023-02-08T14:30:53.685Z,10.10
2023-02-08T14:33:26.941Z,10.37
2023-02-08T14:35:58.020Z,10.00
2023-02-08T14:38:54.515Z,10.90
2023-02-08T14:41:45.856Z,9.00
2023-02-08T14:44:53.305Z,10.17
2023-02-08T14:48:05.129Z,11.40
2023-02-08T14:50:41.892Z,11.40
2023-02-08T14:53:30.457Z,11.13
2023-02-08T14:56:03.590Z,9.70
2023-02-08T14:58:34.745Z,10.73
2023-02-08T15:01:06.667Z,10.97
2023-02-08T15:03:35.956Z,11.23
2023-02-08T15:06:50.392Z,9.90
2023-02-08T15:09:21.823Z,10.30
2023-02-08T15:11:54.048Z,9.57
2023-02-08T15:14:22.373Z,9.47
2023-02-08T15:16:50.708Z,10.30
2023-02-08T15:19:25.249Z,11.00
2023-02-08T15:21:54.600Z,10.07
2023-02-08T15:24:28.894Z,9.77
2023-02-08T15:26:58.338Z,11.03
2023-02-08T15:29:39.097Z,9.93
2023-02-08T15:32:15.137Z,10.00
2023-02-08T15:34:45.154Z,10.20
2023-02-08T15:37:18.364Z,9.90
2023-02-08T15:39:49.873Z,10.93
2023-02-08T15:42:19.071Z,10.50
2023-02-08T15:44:48.069Z,11.87
2023-02-08T15:47:19.680Z,10.17
2023-02-08T15:49:50.747Z,20.37
2023-02-08T15:52:21.931Z,67.57
2023-02-08T15:54:49.826Z,136.47
2023-02-08T15:57:28.077Z,100.80
2023-02-08T15:59:56.353Z,93.53
2023-02-08T16:02:28.668Z,210.03
2023-02-08T16:04:57.350Z,134.23
2023-02-08T16:07:32.124Z,30.50
2023-02-08T16:10:00.477Z,30.50
2023-02-08T16:12:29.469Z,18.50
2023-02-08T16:14:57.784Z,15.10
2023-02-08T16:17:44.542Z,14.50
2023-02-08T16:20:30.749Z,13.53
2023-02-08T16:23:02.772Z,13.40
2023-02-08T16:25:37.699Z,12.57
2023-02-08T16:28:06.928Z,14.10
2023-02-08T16:30:35.153Z,15.13
2023-02-08T16:33:10.097Z,14.70
2023-02-08T16:35:40.575Z,13.23
2023-02-08T16:38:11.584Z,13.50
2023-02-08T16:40:48.966Z,12.80
2023-02-08T16:43:19.806Z,12.50
2023-02-08T16:46:07.967Z,12.27
2023-02-08T16:48:37.420Z,11.67
2023-02-08T16:51:11.060Z,12.90
2023-02-08T16:53:42.586Z,12.70
2023-02-08T16:56:11.909Z,12.17
2023-02-08T16:58:40.189Z,12.00
2023-02-08T17:01:10.864Z,11.93
2023-02-08T17:03:38.729Z,12.83
2023-02-08T17:06:07.363Z,12.13
2023-02-08T17:08:36.730Z,11.47
2023-02-08T17:11:06.044Z,14.00
2023-02-08T17:13:33.824Z,13.80
2023-02-08T17:16:01.970Z,14.17
2023-02-08T17:18:33.210Z,12.70
2023-02-08T17:21:02.480Z,13.70
2023-02-08T17:23:30.326Z,12.47
2023-02-08T17:25:58.491Z,12.47
2023-02-08T17:28:27.978Z,12.83
2023-02-08T17:30:55.908Z,12.80
2023-02-08T17:33:23.770Z,13.67
2023-02-08T17:35:52.933Z,13.03
2023-02-08T17:38:21.362Z,14.13
2023-02-08T17:40:49.539Z,12.97
2023-02-08T17:43:17.755Z,12.37
2023-02-08T17:45:47.377Z,11.67
2023-02-08T17:48:15.471Z,13.40
2023-02-08T17:50:47.719Z,12.93
2023-02-08T17:53:15.864Z,12.60
2023-02-08T17:55:46.831Z,11.57
2023-02-08T17:58:15.028Z,12.60
2023-02-08T18:00:42.987Z,13.50
2023-02-08T18:03:12.398Z,13.73
2023-02-08T18:05:40.247Z,12.70
2023-02-08T18:08:08.061Z,13.40
2023-02-08T18:10:36.355Z,12.77
2023-02-08T18:13:04.186Z,12.37
2023-02-08T18:15:32.029Z,12.60
2023-02-08T18:17:59.958Z,13.43
2023-02-08T18:20:29.277Z,12.00
2023-02-08T18:22:57.080Z,12.57
2023-02-08T18:25:25.122Z,12.70
2023-02-08T18:27:52.962Z,13.03
2023-02-08T18:30:21.087Z,12.80
2023-02-08T18:32:48.880Z,14.57
2023-02-08T18:35:16.665Z,13.67
2023-02-08T18:37:49.284Z,13.80
2023-02-08T18:40:18.335Z,13.80
2023-02-08T18:42:46.097Z,12.80
2023-02-08T18:45:13.926Z,13.20
2023-02-08T18:47:41.745Z,13.17
2023-02-08T18:50:10.259Z,14.27
2023-02-08T18:52:38.036Z,13.43
2023-02-08T18:55:07.757Z,13.47
2023-02-08T18:57:38.777Z,12.70
2023-02-08T19:00:07.838Z,12.60
2023-02-08T19:02:36.544Z,11.10
2023-02-08T19:05:06.589Z,12.37
2023-02-08T19:07:35.721Z,13.20
2023-02-08T19:10:03.546Z,13.50
2023-02-08T19:12:32.951Z,14.80
2023-02-08T19:15:00.744Z,12.17
2023-02-08T19:17:28.681Z,13.33
2023-02-08T19:19:56.452Z,13.70
2023-02-08T19:22:24.268Z,14.63
2023-02-08T19:24:52.262Z,14.77
2023-02-08T19:27:20.186Z,16.43
2023-02-08T19:29:51.485Z,17.23
2023-02-08T19:32:19.303Z,15.37
2023-02-08T19:34:47.102Z,15.53
2023-02-08T19:37:14.930Z,15.10
2023-02-08T19:39:42.727Z,12.97
2023-02-08T19:42:10.543Z,14.90
2023-02-08T19:44:38.469Z,13.90
2023-02-08T19:47:07.645Z,13.40
2023-02-08T19:49:35.438Z,14.83
2023-02-08T19:52:03.214Z,13.90
2023-02-08T19:54:31.015Z,15.20
2023-02-08T19:56:58.810Z,14.53
2023-02-08T19:59:28.040Z,14.30
2023-02-08T20:01:56.233Z,15.40
2023-02-08T20:04:25.448Z,14.67
2023-02-08T20:06:54.408Z,15.87
2023-02-08T20:09:22.658Z,14.63
2023-02-08T20:11:57.237Z,14.50
2023-02-08T20:14:25.754Z,14.10
2023-02-08T20:16:53.848Z,12.47
2023-02-08T20:19:21.776Z,13.00
2023-02-08T20:21:50.891Z,13.83
2023-02-08T20:24:18.841Z,13.50
2023-02-08T20:26:47.990Z,12.37
2023-02-08T20:29:16.839Z,14.30
2023-02-08T20:31:47.547Z,13.47
2023-02-08T20:34:18.553Z,12.80
2023-02-08T20:37:05.344Z,14.20
2023-02-08T20:39:36.051Z,12.57
2023-02-08T20:42:03.915Z,13.93
2023-02-08T20:44:32.418Z,14.43
2023-02-08T20:47:00.512Z,14.30
2023-02-08T20:49:29.382Z,16.60
2023-02-08T20:51:57.317Z,15.40
2023-02-08T20:54:25.593Z,16.70
2023-02-08T20:56:55.218Z,15.93
2023-02-08T20:59:23.568Z,14.80
2023-02-08T21:01:51.850Z,13.40
2023-02-08T21:04:23.161Z,15.07
2023-02-08T21:06:51.879Z,13.60
2023-02-08T21:09:20.943Z,16.37
2023-02-08T21:11:49.456Z,14.40
2023-02-08T21:14:21.164Z,16.53
2023-02-08T21:16:50.871Z,16.00
2023-02-08T21:19:20.433Z,14.57
2023-02-08T21:21:51.743Z,13.20
2023-02-08T21:24:19.841Z,13.77
2023-02-08T21:26:47.617Z,14.23
2023-02-08T21:29:15.413Z,13.23
2023-02-08T21:31:44.783Z,15.10
2023-02-08T21:34:12.887Z,11.40
2023-02-08T21:36:40.670Z,13.23
2023-02-08T21:39:08.743Z,13.57
2023-02-08T21:41:37.702Z,13.20
2023-02-08T21:44:08.075Z,12.50
2023-02-08T21:46:36.224Z,13.83
2023-02-08T21:49:22.891Z,14.10
2023-02-08T21:52:08.454Z,14.07
2023-02-08T21:54:42.812Z,15.50
2023-02-08T21:57:12.948Z,13.30
2023-02-08T21:59:41.085Z,15.00
2023-02-08T22:02:11.747Z,14.33
2023-02-08T22:04:41.967Z,13.43
2023-02-08T22:07:09.739Z,14.60
2023-02-08T22:09:39.633Z,12.40
2023-02-08T22:12:07.560Z,13.30
2023-02-08T22:14:35.767Z,13.23
2023-02-08T22:17:03.775Z,14.23
2023-02-08T22:19:31.551Z,13.63
2023-02-08T22:22:02.227Z,12.77
2023-02-08T22:24:30.015Z,12.93
2023-02-08T22:26:57.768Z,12.13
2023-02-08T22:29:25.525Z,12.90
2023-02-08T22:31:53.579Z,13.03
2023-02-08T22:34:21.492Z,12.50
2023-02-08T22:36:49.275Z,12.90
2023-02-08T22:39:18.402Z,12.97
2023-02-08T22:41:46.283Z,12.60
2023-02-08T22:44:14.102Z,14.80
2023-02-08T22:46:41.977Z,14.80
2023-02-08T22:49:09.844Z,13.77
2023-02-08T22:51:37.665Z,14.20
2023-02-08T22:54:05.674Z,13.43
2023-02-08T22:56:34.805Z,14.60
2023-02-08T22:59:02.565Z,13.47
2023-02-08T23:01:30.379Z,14.90
2023-02-08T23:04:00.316Z,14.30
2023-02-08T23:06:28.338Z,13.47
2023-02-08T23:08:56.373Z,15.07
2023-02-08T23:11:24.311Z,14.33
2023-02-08T23:13:53.434Z,13.93
2023-02-08T23:16:21.432Z,13.27
2023-02-08T23:18:49.292Z,13.87
2023-02-08T23:21:19.258Z,13.27
2023-02-08T23:23:48.512Z,13.63
2023-02-08T23:26:18.604Z,12.37
2023-02-08T23:28:47.145Z,13.17
2023-02-08T23:31:16.585Z,13.07
2023-02-08T23:33:44.945Z,13.43
2023-02-08T23:36:14.963Z,13.57
2023-02-08T23:38:43.599Z,12.50
2023-02-08T23:41:17.637Z,12.77
2023-02-08T23:43:45.462Z,12.70
2023-02-08T23:46:17.918Z,12.07
2023-02-08T23:48:47.564Z,11.40
2023-02-08T23:51:16.936Z,11.10
2023-02-08T23:53:44.772Z,12.43
2023-02-08T23:56:17.042Z,12.60
2023-02-08T23:58:46.641Z,12.60
